sensor_id;sensor_type;location;lat;lon;timestamp;pressure;altitude;pressure_sealevel;temperature;humidity
35489;BME280;21602;55.670;37.578;2023-01-30T00:01:27;98276.59;;;-1.47;87.74
35489;BME280;21602;55.670;37.578;2023-01-30T00:03:53;98281.41;;;-1.51;87.97
35489;BME280;21602;55.670;37.578;2023-01-30T00:06:19;98269.28;;;-1.52;87.93
35489;BME280;21602;55.670;37.578;2023-01-30T00:08:46;98267.88;;;-1.55;88.29
35489;BME280;21602;55.670;37.578;2023-01-30T00:11:14;98271.50;;;-1.56;87.75
35489;BME280;21602;55.670;37.578;2023-01-30T00:13:40;98262.19;;;-1.58;88.04
35489;BME280;21602;55.670;37.578;2023-01-30T00:16:07;98270.22;;;-1.60;88.12
35489;BME280;21602;55.670;37.578;2023-01-30T00:18:37;98278.16;;;-1.53;88.32
35489;BME280;21602;55.670;37.578;2023-01-30T00:21:05;98265.88;;;-1.52;87.83
35489;BME280;21602;55.670;37.578;2023-01-30T00:23:32;98254.88;;;-1.63;88.19
35489;BME280;21602;55.670;37.578;2023-01-30T00:25:59;98258.50;;;-1.64;88.30
35489;BME280;21602;55.670;37.578;2023-01-30T00:28:25;98255.88;;;-1.64;88.49
35489;BME280;21602;55.670;37.578;2023-01-30T00:30:52;98244.84;;;-1.59;88.68
35489;BME280;21602;55.670;37.578;2023-01-30T00:33:19;98246.03;;;-1.62;88.48
35489;BME280;21602;55.670;37.578;2023-01-30T00:35:46;98244.25;;;-1.61;88.63
35489;BME280;21602;55.670;37.578;2023-01-30T00:38:13;98240.78;;;-1.62;88.59
35489;BME280;21602;55.670;37.578;2023-01-30T00:40:40;98227.34;;;-1.59;88.62
35489;BME280;21602;55.670;37.578;2023-01-30T00:43:11;98232.03;;;-1.54;88.78
35489;BME280;21602;55.670;37.578;2023-01-30T00:45:56;98228.88;;;-1.49;88.90
35489;BME280;21602;55.670;37.578;2023-01-30T00:48:40;98213.22;;;-1.43;88.76
35489;BME280;21602;55.670;37.578;2023-01-30T00:51:06;98225.16;;;-1.40;88.55
35489;BME280;21602;55.670;37.578;2023-01-30T00:53:32;98218.47;;;-1.43;88.65
35489;BME280;21602;55.670;37.578;2023-01-30T00:55:58;98220.91;;;-1.41;88.84
35489;BME280;21602;55.670;37.578;2023-01-30T00:58:24;98214.31;;;-1.37;88.64
35489;BME280;21602;55.670;37.578;2023-01-30T01:00:50;98212.50;;;-1.37;88.57
35489;BME280;21602;55.670;37.578;2023-01-30T01:03:16;98204.75;;;-1.45;88.71
35489;BME280;21602;55.670;37.578;2023-01-30T01:05:42;98204.75;;;-1.45;88.78
35489;BME280;21602;55.670;37.578;2023-01-30T01:08:09;98204.16;;;-1.47;88.92
35489;BME280;21602;55.670;37.578;2023-01-30T01:10:34;98198.47;;;-1.50;88.93
35489;BME280;21602;55.670;37.578;2023-01-30T01:13:00;98200.28;;;-1.51;88.94
35489;BME280;21602;55.670;37.578;2023-01-30T01:15:26;98205.41;;;-1.58;89.06
35489;BME280;21602;55.670;37.578;2023-01-30T01:17:53;98201.81;;;-1.57;89.19
35489;BME280;21602;55.670;37.578;2023-01-30T01:20:20;98198.19;;;-1.56;89.00
35489;BME280;21602;55.670;37.578;2023-01-30T01:22:47;98198.09;;;-1.62;89.35
35489;BME280;21602;55.670;37.578;2023-01-30T01:25:15;98194.06;;;-1.65;89.30
35489;BME280;21602;55.670;37.578;2023-01-30T01:27:44;98194.06;;;-1.65;89.24
35489;BME280;21602;55.670;37.578;2023-01-30T01:30:10;98181.44;;;-1.76;89.76
35489;BME280;21602;55.670;37.578;2023-01-30T01:32:36;98183.34;;;-1.70;90.05
35489;BME280;21602;55.670;37.578;2023-01-30T01:35:02;98178.91;;;-1.69;89.62
35489;BME280;21602;55.670;37.578;2023-01-30T01:37:30;98178.28;;;-1.71;89.86
35489;BME280;21602;55.670;37.578;2023-01-30T01:39:55;98171.06;;;-1.69;89.92
35489;BME280;21602;55.670;37.578;2023-01-30T01:42:39;98171.44;;;-1.72;89.92
35489;BME280;21602;55.670;37.578;2023-01-30T01:48:10;98149.94;;;-1.68;90.12
35489;BME280;21602;55.670;37.578;2023-01-30T01:50:50;98144.50;;;-1.66;90.16
35489;BME280;21602;55.670;37.578;2023-01-30T01:53:21;98133.88;;;-1.65;90.23
35489;BME280;21602;55.670;37.578;2023-01-30T01:55:50;98131.06;;;-1.63;90.29
35489;BME280;21602;55.670;37.578;2023-01-30T01:58:30;98130.88;;;-1.62;90.64
35489;BME280;21602;55.670;37.578;2023-01-30T02:00:58;98124.66;;;-1.61;90.54
35489;BME280;21602;55.670;37.578;2023-01-30T02:03:25;98113.41;;;-1.61;90.86
35489;BME280;21602;55.670;37.578;2023-01-30T02:05:56;98118.63;;;-1.61;90.78
35489;BME280;21602;55.670;37.578;2023-01-30T02:08:33;98120.81;;;-1.65;90.97
35489;BME280;21602;55.670;37.578;2023-01-30T02:11:29;98109.69;;;-1.67;91.25
35489;BME280;21602;55.670;37.578;2023-01-30T02:13:57;98109.06;;;-1.69;91.09
35489;BME280;21602;55.670;37.578;2023-01-30T02:16:24;98115.31;;;-1.70;91.57
35489;BME280;21602;55.670;37.578;2023-01-30T02:18:49;98108.81;;;-1.74;91.39
35489;BME280;21602;55.670;37.578;2023-01-30T02:40:51;98073.91;;;-1.81;90.80
35489;BME280;21602;55.670;37.578;2023-01-30T02:43:56;98068.78;;;-1.74;90.84
35489;BME280;21602;55.670;37.578;2023-01-30T02:46:25;98065.97;;;-1.73;90.56
35489;BME280;21602;55.670;37.578;2023-01-30T02:48:59;98069.34;;;-1.79;90.43
35489;BME280;21602;55.670;37.578;2023-01-30T02:51:33;98065.91;;;-1.79;90.53
35489;BME280;21602;55.670;37.578;2023-01-30T02:54:00;98060.28;;;-1.76;90.29
35489;BME280;21602;55.670;37.578;2023-01-30T02:56:26;98054.44;;;-1.78;90.06
35489;BME280;21602;55.670;37.578;2023-01-30T02:58:56;98055.00;;;-1.83;90.02
35489;BME280;21602;55.670;37.578;2023-01-30T03:12:48;98026.97;;;-1.68;89.68
35489;BME280;21602;55.670;37.578;2023-01-30T03:15:35;98017.75;;;-1.64;89.98
35489;BME280;21602;55.670;37.578;2023-01-30T03:18:05;98014.31;;;-1.64;89.92
35489;BME280;21602;55.670;37.578;2023-01-30T03:20:37;98014.56;;;-1.59;89.56
35489;BME280;21602;55.670;37.578;2023-01-30T03:23:04;98016.63;;;-1.55;89.44
35489;BME280;21602;55.670;37.578;2023-01-30T03:25:31;98006.16;;;-1.55;89.43
35489;BME280;21602;55.670;37.578;2023-01-30T03:27:58;98012.38;;;-1.56;89.25
35489;BME280;21602;55.670;37.578;2023-01-30T03:30:26;98011.75;;;-1.58;89.19
35489;BME280;21602;55.670;37.578;2023-01-30T03:33:00;98005.47;;;-1.63;89.60
35489;BME280;21602;55.670;37.578;2023-01-30T03:35:26;98000.03;;;-1.62;89.37
35489;BME280;21602;55.670;37.578;2023-01-30T03:37:52;97999.22;;;-1.62;89.35
35489;BME280;21602;55.670;37.578;2023-01-30T03:40:18;97996.81;;;-1.64;89.38
35489;BME280;21602;55.670;37.578;2023-01-30T03:42:45;97991.22;;;-1.61;89.45
35489;BME280;21602;55.670;37.578;2023-01-30T03:45:11;97986.22;;;-1.56;89.37
35489;BME280;21602;55.670;37.578;2023-01-30T03:47:36;97984.22;;;-1.53;89.25
35489;BME280;21602;55.670;37.578;2023-01-30T03:50:04;97988.03;;;-1.56;89.01
35489;BME280;21602;55.670;37.578;2023-01-30T03:52:33;97980.31;;;-1.64;89.01
35489;BME280;21602;55.670;37.578;2023-01-30T03:54:59;97973.06;;;-1.62;89.28
35489;BME280;21602;55.670;37.578;2023-01-30T03:57:25;97966.66;;;-1.60;89.38
35489;BME280;21602;55.670;37.578;2023-01-30T03:59:51;97963.47;;;-1.55;89.06
35489;BME280;21602;55.670;37.578;2023-01-30T04:02:17;97963.66;;;-1.57;89.07
35489;BME280;21602;55.670;37.578;2023-01-30T04:04:48;97952.94;;;-1.62;88.66
35489;BME280;21602;55.670;37.578;2023-01-30T04:07:14;97949.72;;;-1.64;89.11
35489;BME280;21602;55.670;37.578;2023-01-30T04:09:41;97948.09;;;-1.65;88.95
35489;BME280;21602;55.670;37.578;2023-01-30T04:12:07;97948.88;;;-1.71;89.01
35489;BME280;21602;55.670;37.578;2023-01-30T04:14:41;97936.91;;;-1.80;89.15
35489;BME280;21602;55.670;37.578;2023-01-30T04:17:25;97936.91;;;-1.80;89.38
35489;BME280;21602;55.670;37.578;2023-01-30T04:20:10;97928.22;;;-1.81;89.40
35489;BME280;21602;55.670;37.578;2023-01-30T04:22:39;97928.44;;;-1.82;89.30
35489;BME280;21602;55.670;37.578;2023-01-30T04:25:06;97922.44;;;-1.76;89.25
35489;BME280;21602;55.670;37.578;2023-01-30T04:27:32;97923.50;;;-1.70;89.26
35489;BME280;21602;55.670;37.578;2023-01-30T04:30:09;97931.97;;;-1.68;88.99
35489;BME280;21602;55.670;37.578;2023-01-30T04:32:35;97924.31;;;-1.70;88.97
35489;BME280;21602;55.670;37.578;2023-01-30T04:35:01;97919.88;;;-1.69;88.90
35489;BME280;21602;55.670;37.578;2023-01-30T04:37:28;97919.69;;;-1.68;88.83
35489;BME280;21602;55.670;37.578;2023-01-30T04:39:54;97914.69;;;-1.63;88.66
35489;BME280;21602;55.670;37.578;2023-01-30T04:42:26;97913.06;;;-1.64;88.52
35489;BME280;21602;55.670;37.578;2023-01-30T04:45:13;97907.72;;;-1.56;88.60
35489;BME280;21602;55.670;37.578;2023-01-30T04:47:39;97900.69;;;-1.48;88.26
35489;BME280;21602;55.670;37.578;2023-01-30T04:50:05;97900.31;;;-1.45;88.04
35489;BME280;21602;55.670;37.578;2023-01-30T04:52:31;97896.69;;;-1.44;87.95
35489;BME280;21602;55.670;37.578;2023-01-30T04:55:06;97881.38;;;-1.47;87.66
35489;BME280;21602;55.670;37.578;2023-01-30T04:57:54;97894.63;;;-1.56;87.71
35489;BME280;21602;55.670;37.578;2023-01-30T05:00:20;97891.38;;;-1.58;87.66
35489;BME280;21602;55.670;37.578;2023-01-30T05:02:52;97879.94;;;-1.57;87.86
35489;BME280;21602;55.670;37.578;2023-01-30T05:05:22;97880.06;;;-1.65;87.70
35489;BME280;21602;55.670;37.578;2023-01-30T05:07:48;97875.00;;;-1.66;87.99
35489;BME280;21602;55.670;37.578;2023-01-30T05:10:14;97872.00;;;-1.70;88.06
35489;BME280;21602;55.670;37.578;2023-01-30T05:12:41;97869.53;;;-1.71;88.15
35489;BME280;21602;55.670;37.578;2023-01-30T05:15:07;97866.13;;;-1.72;88.12
35489;BME280;21602;55.670;37.578;2023-01-30T05:17:34;97852.22;;;-1.72;88.38
35489;BME280;21602;55.670;37.578;2023-01-30T05:20:02;97852.09;;;-1.64;88.26
35489;BME280;21602;55.670;37.578;2023-01-30T05:22:29;97847.91;;;-1.59;88.09
35489;BME280;21602;55.670;37.578;2023-01-30T05:24:54;97843.47;;;-1.58;88.12
35489;BME280;21602;55.670;37.578;2023-01-30T05:27:20;97832.19;;;-1.59;87.88
35489;BME280;21602;55.670;37.578;2023-01-30T05:29:46;97828.56;;;-1.58;88.09
35489;BME280;21602;55.670;37.578;2023-01-30T05:32:16;97827.97;;;-1.60;87.89
35489;BME280;21602;55.670;37.578;2023-01-30T05:34:44;97823.97;;;-1.56;88.05
35489;BME280;21602;55.670;37.578;2023-01-30T05:37:11;97822.50;;;-1.65;88.13
35489;BME280;21602;55.670;37.578;2023-01-30T05:39:37;97824.31;;;-1.65;88.49
35489;BME280;21602;55.670;37.578;2023-01-30T05:42:03;97824.47;;;-1.73;88.14
35489;BME280;21602;55.670;37.578;2023-01-30T05:44:29;97820.81;;;-1.79;88.33
35489;BME280;21602;55.670;37.578;2023-01-30T05:46:56;97814.56;;;-1.78;88.46
35489;BME280;21602;55.670;37.578;2023-01-30T05:49:22;97804.34;;;-1.73;88.53
35489;BME280;21602;55.670;37.578;2023-01-30T05:51:49;97804.75;;;-1.69;88.45
35489;BME280;21602;55.670;37.578;2023-01-30T05:54:14;97801.94;;;-1.68;88.33
35489;BME280;21602;55.670;37.578;2023-01-30T05:56:40;97797.72;;;-1.69;88.25
35489;BME280;21602;55.670;37.578;2023-01-30T05:59:10;97794.72;;;-1.66;88.39
35489;BME280;21602;55.670;37.578;2023-01-30T06:01:36;97787.47;;;-1.70;88.17
35489;BME280;21602;55.670;37.578;2023-01-30T06:04:02;97794.69;;;-1.72;88.38
35489;BME280;21602;55.670;37.578;2023-01-30T06:06:28;97783.56;;;-1.81;88.52
35489;BME280;21602;55.670;37.578;2023-01-30T06:08:55;97784.63;;;-1.75;88.55
35489;BME280;21602;55.670;37.578;2023-01-30T06:11:22;97778.59;;;-1.69;88.58
35489;BME280;21602;55.670;37.578;2023-01-30T06:13:48;97791.47;;;-1.68;88.56
35489;BME280;21602;55.670;37.578;2023-01-30T06:16:16;97788.63;;;-1.73;88.50
35489;BME280;21602;55.670;37.578;2023-01-30T06:18:42;97788.41;;;-1.78;88.74
35489;BME280;21602;55.670;37.578;2023-01-30T06:21:08;97783.38;;;-1.79;88.82
35489;BME280;21602;55.670;37.578;2023-01-30T06:23:34;97777.94;;;-1.78;88.82
35489;BME280;21602;55.670;37.578;2023-01-30T06:26:01;97784.63;;;-1.75;88.90
35489;BME280;21602;55.670;37.578;2023-01-30T06:28:27;97784.63;;;-1.75;89.04
35489;BME280;21602;55.670;37.578;2023-01-30T06:30:53;97783.19;;;-1.78;88.82
35489;BME280;21602;55.670;37.578;2023-01-30T06:33:19;97782.81;;;-1.75;88.78
35489;BME280;21602;55.670;37.578;2023-01-30T06:35:48;97777.38;;;-1.73;89.09
35489;BME280;21602;55.670;37.578;2023-01-30T06:38:14;97781.59;;;-1.72;89.20
35489;BME280;21602;55.670;37.578;2023-01-30T06:40:43;97781.16;;;-1.76;89.22
35489;BME280;21602;55.670;37.578;2023-01-30T06:43:09;97771.72;;;-1.77;89.38
35489;BME280;21602;55.670;37.578;2023-01-30T06:45:35;97775.34;;;-1.78;89.39
35489;BME280;21602;55.670;37.578;2023-01-30T06:48:01;97769.72;;;-1.75;89.72
35489;BME280;21602;55.670;37.578;2023-01-30T06:50:28;97758.06;;;-1.72;89.48
35489;BME280;21602;55.670;37.578;2023-01-30T06:52:55;97762.09;;;-1.70;89.54
35489;BME280;21602;55.670;37.578;2023-01-30T06:55:23;97779.63;;;-1.64;89.58
35489;BME280;21602;55.670;37.578;2023-01-30T06:58:00;97767.94;;;-1.68;89.56
35489;BME280;21602;55.670;37.578;2023-01-30T07:00:26;97769.94;;;-1.70;89.35
35489;BME280;21602;55.670;37.578;2023-01-30T07:02:52;97766.47;;;-1.77;89.81
35489;BME280;21602;55.670;37.578;2023-01-30T07:05:17;97768.06;;;-1.83;90.00
35489;BME280;21602;55.670;37.578;2023-01-30T07:07:43;97763.63;;;-1.82;90.66
35489;BME280;21602;55.670;37.578;2023-01-30T07:10:10;97766.47;;;-1.77;90.23
35489;BME280;21602;55.670;37.578;2023-01-30T07:12:36;97762.03;;;-1.76;90.44
35489;BME280;21602;55.670;37.578;2023-01-30T07:15:04;97770.13;;;-1.71;90.38
35489;BME280;21602;55.670;37.578;2023-01-30T07:17:31;97759.72;;;-1.65;90.09
35489;BME280;21602;55.670;37.578;2023-01-30T07:19:57;97754.06;;;-1.62;90.18
35489;BME280;21602;55.670;37.578;2023-01-30T07:22:24;97750.09;;;-1.51;90.04
35489;BME280;21602;55.670;37.578;2023-01-30T07:24:50;97754.16;;;-1.42;89.91
35489;BME280;21602;55.670;37.578;2023-01-30T07:27:16;97748.94;;;-1.35;89.59
35489;BME280;21602;55.670;37.578;2023-01-30T07:29:42;97738.84;;;-1.38;89.18
35489;BME280;21602;55.670;37.578;2023-01-30T07:32:16;97737.41;;;-1.47;89.25
35489;BME280;21602;55.670;37.578;2023-01-30T07:34:43;97735.81;;;-1.48;89.32
35489;BME280;21602;55.670;37.578;2023-01-30T07:37:09;97720.91;;;-1.48;89.58
35489;BME280;21602;55.670;37.578;2023-01-30T07:39:35;97719.69;;;-1.52;89.27
35489;BME280;21602;55.670;37.578;2023-01-30T07:42:01;97729.16;;;-1.51;89.53
35489;BME280;21602;55.670;37.578;2023-01-30T07:44:28;97717.91;;;-1.51;89.54
35489;BME280;21602;55.670;37.578;2023-01-30T07:47:01;97710.84;;;-1.51;89.42
35489;BME280;21602;55.670;37.578;2023-01-30T07:49:36;97710.84;;;-1.51;89.44
35489;BME280;21602;55.670;37.578;2023-01-30T07:52:02;97710.06;;;-1.45;89.65
35489;BME280;21602;55.670;37.578;2023-01-30T07:54:28;97712.66;;;-1.51;89.54
35489;BME280;21602;55.670;37.578;2023-01-30T07:56:54;97704.59;;;-1.50;89.71
35489;BME280;21602;55.670;37.578;2023-01-30T07:59:19;97714.28;;;-1.50;89.54
35489;BME280;21602;55.670;37.578;2023-01-30T08:01:45;97710.25;;;-1.46;89.65
35489;BME280;21602;55.670;37.578;2023-01-30T08:04:11;97707.44;;;-1.38;89.48
35489;BME280;21602;55.670;37.578;2023-01-30T08:06:37;97691.31;;;-1.48;89.63
35489;BME280;21602;55.670;37.578;2023-01-30T08:09:04;97695.53;;;-1.47;89.60
35489;BME280;21602;55.670;37.578;2023-01-30T08:11:31;97695.38;;;-1.46;89.47
35489;BME280;21602;55.670;37.578;2023-01-30T08:13:56;97687.31;;;-1.44;89.70
35489;BME280;21602;55.670;37.578;2023-01-30T08:16:22;97678.44;;;-1.43;89.70
35489;BME280;21602;55.670;37.578;2023-01-30T08:18:48;97684.09;;;-1.33;89.71
35489;BME280;21602;55.670;37.578;2023-01-30T08:21:13;97682.09;;;-1.31;89.47
35489;BME280;21602;55.670;37.578;2023-01-30T08:23:39;97674.47;;;-1.26;89.50
35489;BME280;21602;55.670;37.578;2023-01-30T08:26:05;97679.69;;;-1.26;89.33
35489;BME280;21602;55.670;37.578;2023-01-30T08:28:31;97655.53;;;-1.28;89.44
35489;BME280;21602;55.670;37.578;2023-01-30T08:30:57;97666.41;;;-1.24;89.46
35489;BME280;21602;55.670;37.578;2023-01-30T08:33:24;97664.00;;;-1.26;89.41
35489;BME280;21602;55.670;37.578;2023-01-30T08:35:50;97653.72;;;-1.27;89.42
35489;BME280;21602;55.670;37.578;2023-01-30T08:38:16;97651.50;;;-1.24;89.54
35489;BME280;21602;55.670;37.578;2023-01-30T08:40:42;97646.47;;;-1.19;89.37
35489;BME280;21602;55.670;37.578;2023-01-30T08:43:08;97655.53;;;-1.15;89.33
35489;BME280;21602;55.670;37.578;2023-01-30T08:45:34;97642.44;;;-1.15;89.19
35489;BME280;21602;55.670;37.578;2023-01-30T08:48:02;97653.34;;;-1.18;89.56
35489;BME280;21602;55.670;37.578;2023-01-30T08:50:29;97647.47;;;-1.20;89.29
35489;BME280;21602;55.670;37.578;2023-01-30T08:52:54;97635.00;;;-1.18;89.55
35489;BME280;21602;55.670;37.578;2023-01-30T08:55:22;97642.25;;;-1.13;89.11
35489;BME280;21602;55.670;37.578;2023-01-30T08:57:48;97634.59;;;-1.08;89.30
35489;BME280;21602;55.670;37.578;2023-01-30T09:00:15;97634.19;;;-1.05;89.16
35489;BME280;21602;55.670;37.578;2023-01-30T09:02:40;97620.09;;;-1.04;88.89
35489;BME280;21602;55.670;37.578;2023-01-30T09:05:07;97627.97;;;-1.04;88.87
35489;BME280;21602;55.670;37.578;2023-01-30T09:07:35;97622.72;;;-0.97;88.99
35489;BME280;21602;55.670;37.578;2023-01-30T09:10:01;97608.19;;;-1.00;88.77
35489;BME280;21602;55.670;37.578;2023-01-30T09:12:27;97613.22;;;-1.05;88.83
35489;BME280;21602;55.670;37.578;2023-01-30T09:14:52;97614.88;;;-1.04;89.06
35489;BME280;21602;55.670;37.578;2023-01-30T09:17:20;97612.22;;;-1.11;88.97
35489;BME280;21602;55.670;37.578;2023-01-30T09:19:46;97600.13;;;-1.05;89.09
35489;BME280;21602;55.670;37.578;2023-01-30T09:22:12;97608.81;;;-0.98;89.16
35489;BME280;21602;55.670;37.578;2023-01-30T09:24:37;97604.38;;;-0.91;88.76
35489;BME280;21602;55.670;37.578;2023-01-30T09:27:03;97595.91;;;-0.93;88.45
35489;BME280;21602;55.670;37.578;2023-01-30T09:29:29;97580.38;;;-0.88;88.74
35489;BME280;21602;55.670;37.578;2023-01-30T09:31:55;97597.09;;;-0.82;88.42
35489;BME280;21602;55.670;37.578;2023-01-30T09:34:25;97596.31;;;-0.83;88.18
35489;BME280;21602;55.670;37.578;2023-01-30T09:36:56;97584.44;;;-0.85;88.15
35489;BME280;21602;55.670;37.578;2023-01-30T09:39:25;97571.91;;;-0.83;88.43
35489;BME280;21602;55.670;37.578;2023-01-30T09:47:44;97560.19;;;-0.61;88.08
35489;BME280;21602;55.670;37.578;2023-01-30T09:53:03;97548.31;;;-0.70;87.39
35489;BME280;21602;55.670;37.578;2023-01-30T09:55:32;97550.97;;;-0.83;87.79
35489;BME280;21602;55.670;37.578;2023-01-30T09:58:02;97561.03;;;-0.80;87.86
35489;BME280;21602;55.670;37.578;2023-01-30T10:00:36;97540.09;;;-0.80;87.88
35489;BME280;21602;55.670;37.578;2023-01-30T10:03:09;97541.06;;;-0.81;87.94
35489;BME280;21602;55.670;37.578;2023-01-30T10:10:48;97521.31;;;-0.77;87.68
35489;BME280;21602;55.670;37.578;2023-01-30T10:16:25;97512.41;;;-0.63;87.46
35489;BME280;21602;55.670;37.578;2023-01-30T10:19:07;97505.16;;;-0.67;87.35
35489;BME280;21602;55.670;37.578;2023-01-30T10:27:10;97503.16;;;-0.65;87.34
35489;BME280;21602;55.670;37.578;2023-01-30T10:29:41;97504.34;;;-0.68;87.35
35489;BME280;21602;55.670;37.578;2023-01-30T10:32:32;97487.84;;;-0.68;87.28
35489;BME280;21602;55.670;37.578;2023-01-30T10:35:08;97492.50;;;-0.70;87.36
35489;BME280;21602;55.670;37.578;2023-01-30T10:37:45;97483.63;;;-0.76;87.41
35489;BME280;21602;55.670;37.578;2023-01-30T10:43:23;97476.16;;;-0.66;87.14
35489;BME280;21602;55.670;37.578;2023-01-30T10:48:29;97478.16;;;-0.68;87.00
35489;BME280;21602;55.670;37.578;2023-01-30T10:51:04;97472.91;;;-0.68;87.17
35489;BME280;21602;55.670;37.578;2023-01-30T10:54:10;97466.03;;;-0.56;87.05
35489;BME280;21602;55.670;37.578;2023-01-30T10:56:46;97463.75;;;-0.45;87.06
35489;BME280;21602;55.670;37.578;2023-01-30T10:59:49;97462.72;;;-0.44;86.78
35489;BME280;21602;55.670;37.578;2023-01-30T11:02:24;97449.22;;;-0.41;86.17
35489;BME280;21602;55.670;37.578;2023-01-30T11:04:57;97446.16;;;-0.38;86.62
35489;BME280;21602;55.670;37.578;2023-01-30T11:07:24;97449.63;;;-0.44;86.45
35489;BME280;21602;55.670;37.578;2023-01-30T11:09:50;97438.38;;;-0.52;86.38
35489;BME280;21602;55.670;37.578;2023-01-30T11:12:17;97451.50;;;-0.52;86.91
35489;BME280;21602;55.670;37.578;2023-01-30T11:17:37;97430.53;;;-0.58;86.68
35489;BME280;21602;55.670;37.578;2023-01-30T11:20:13;97446.25;;;-0.58;87.13
35489;BME280;21602;55.670;37.578;2023-01-30T11:23:03;97437.38;;;-0.50;87.20
35489;BME280;21602;55.670;37.578;2023-01-30T11:25:29;97441.97;;;-0.46;87.09
35489;BME280;21602;55.670;37.578;2023-01-30T11:28:00;97424.03;;;-0.49;86.82
35489;BME280;21602;55.670;37.578;2023-01-30T11:30:37;97431.31;;;-0.51;86.95
35489;BME280;21602;55.670;37.578;2023-01-30T11:33:16;97419.25;;;-0.52;87.29
35489;BME280;21602;55.670;37.578;2023-01-30T11:35:57;97422.69;;;-0.58;87.55
35489;BME280;21602;55.670;37.578;2023-01-30T11:38:32;97418.06;;;-0.56;87.49
35489;BME280;21602;55.670;37.578;2023-01-30T11:41:17;97414.63;;;-0.57;87.85
35489;BME280;21602;55.670;37.578;2023-01-30T11:43:44;97400.91;;;-0.59;88.33
35489;BME280;21602;55.670;37.578;2023-01-30T11:46:13;97409.16;;;-0.55;88.10
35489;BME280;21602;55.670;37.578;2023-01-30T11:48:49;97403.28;;;-0.50;88.78
35489;BME280;21602;55.670;37.578;2023-01-30T11:51:21;97412.97;;;-0.51;88.51
35489;BME280;21602;55.670;37.578;2023-01-30T11:53:54;97404.69;;;-0.48;88.13
35489;BME280;21602;55.670;37.578;2023-01-30T11:58:58;97400.63;;;-0.44;88.82
35489;BME280;21602;55.670;37.578;2023-01-30T12:01:29;97399.81;;;-0.38;88.66
35489;BME280;21602;55.670;37.578;2023-01-30T12:03:56;97395.94;;;-0.35;88.48
35489;BME280;21602;55.670;37.578;2023-01-30T12:06:34;97391.72;;;-0.36;88.76
35489;BME280;21602;55.670;37.578;2023-01-30T12:09:02;97393.31;;;-0.35;88.83
35489;BME280;21602;55.670;37.578;2023-01-30T12:17:04;97375.91;;;-0.55;88.81
35489;BME280;21602;55.670;37.578;2023-01-30T12:22:31;97371.84;;;-0.50;89.41
35489;BME280;21602;55.670;37.578;2023-01-30T12:25:08;97377.31;;;-0.52;89.70
35489;BME280;21602;55.670;37.578;2023-01-30T12:30:32;97371.00;;;-0.44;89.63
35489;BME280;21602;55.670;37.578;2023-01-30T12:33:03;97365.91;;;-0.39;89.72
35489;BME280;21602;55.670;37.578;2023-01-30T12:41:19;97355.56;;;-0.28;89.81
35489;BME280;21602;55.670;37.578;2023-01-30T12:51:53;97343.25;;;-0.27;89.96
35489;BME280;21602;55.670;37.578;2023-01-30T12:57:29;97331.53;;;-0.24;90.03
35489;BME280;21602;55.670;37.578;2023-01-30T13:10:32;97317.22;;;-0.29;89.84
35489;BME280;21602;55.670;37.578;2023-01-30T13:18:55;97318.41;;;-0.24;89.78
35489;BME280;21602;55.670;37.578;2023-01-30T13:21:30;97315.44;;;-0.28;90.28
35489;BME280;21602;55.670;37.578;2023-01-30T13:26:41;97314.09;;;-0.37;90.27
35489;BME280;21602;55.670;37.578;2023-01-30T13:29:26;97312.28;;;-0.43;90.67
35489;BME280;21602;55.670;37.578;2023-01-30T13:31:56;97305.84;;;-0.41;90.66
35489;BME280;21602;55.670;37.578;2023-01-30T13:34:29;97307.44;;;-0.40;90.88
35489;BME280;21602;55.670;37.578;2023-01-30T13:37:13;97298.34;;;-0.37;90.80
35489;BME280;21602;55.670;37.578;2023-01-30T13:39:58;97307.03;;;-0.37;91.19
35489;BME280;21602;55.670;37.578;2023-01-30T13:42:37;97295.91;;;-0.32;91.16
35489;BME280;21602;55.670;37.578;2023-01-30T13:45:09;97296.91;;;-0.33;91.33
35489;BME280;21602;55.670;37.578;2023-01-30T13:47:51;97294.88;;;-0.31;90.98
35489;BME280;21602;55.670;37.578;2023-01-30T13:53:36;97284.38;;;-0.31;90.83
35489;BME280;21602;55.670;37.578;2023-01-30T14:04:46;97291.28;;;-0.37;90.53
35489;BME280;21602;55.670;37.578;2023-01-30T14:07:25;97295.75;;;-0.37;90.67
35489;BME280;21602;55.670;37.578;2023-01-30T14:12:47;97289.25;;;-0.35;90.46
35489;BME280;21602;55.670;37.578;2023-01-30T14:18:03;97285.81;;;-0.35;90.17
35489;BME280;21602;55.670;37.578;2023-01-30T14:20:48;97271.13;;;-0.36;90.08
35489;BME280;21602;55.670;37.578;2023-01-30T14:23:30;97283.19;;;-0.35;89.70
35489;BME280;21602;55.670;37.578;2023-01-30T14:25:57;97275.72;;;-0.32;89.75
35489;BME280;21602;55.670;37.578;2023-01-30T14:31:00;97280.31;;;-0.27;88.85
35489;BME280;21602;55.670;37.578;2023-01-30T14:38:29;97273.41;;;-0.21;87.86
35489;BME280;21602;55.670;37.578;2023-01-30T14:43:45;97272.63;;;-0.22;87.80
35489;BME280;21602;55.670;37.578;2023-01-30T14:57:02;97266.47;;;-0.09;86.96
35489;BME280;21602;55.670;37.578;2023-01-30T14:59:34;97261.25;;;-0.16;86.29
35489;BME280;21602;55.670;37.578;2023-01-30T15:04:55;97270.88;;;-0.10;86.32
35489;BME280;21602;55.670;37.578;2023-01-30T15:07:35;97257.75;;;-0.10;86.46
35489;BME280;21602;55.670;37.578;2023-01-30T15:27:17;97249.03;;;-0.04;85.66
35489;BME280;21602;55.670;37.578;2023-01-30T15:29:58;97252.69;;;-0.05;85.35
35489;BME280;21602;55.670;37.578;2023-01-30T15:32:31;97257.47;;;-0.02;85.19
35489;BME280;21602;55.670;37.578;2023-01-30T15:35:22;97253.91;;;-0.07;84.63
35489;BME280;21602;55.670;37.578;2023-01-30T15:37:53;97252.09;;;-0.07;85.14
35489;BME280;21602;55.670;37.578;2023-01-30T15:40:25;97254.66;;;0.00;85.22
35489;BME280;21602;55.670;37.578;2023-01-30T15:48:33;97250.94;;;0.08;84.71
35489;BME280;21602;55.670;37.578;2023-01-30T15:51:03;97249.75;;;0.04;83.95
35489;BME280;21602;55.670;37.578;2023-01-30T15:53:32;97246.94;;;0.05;84.00
35489;BME280;21602;55.670;37.578;2023-01-30T15:56:00;97236.06;;;0.02;83.81
35489;BME280;21602;55.670;37.578;2023-01-30T15:58:29;97232.84;;;-0.01;83.96
35489;BME280;21602;55.670;37.578;2023-01-30T16:00:57;97233.69;;;0.00;84.13
35489;BME280;21602;55.670;37.578;2023-01-30T16:03:31;97225.59;;;0.02;83.99